Time;durP1;ratioP1;P1;durP2;ratioP2;P2;SDS_P1;SDS_P2;PMS_P1;PMS_P2;Temp;Humidity;BMP_temperature;BMP_pressure;BME280_temperature;BME280_humidity;BME280_pressure;Samples;Min_cycle;Max_cycle;Signal;HPM_P1;HPM_P2
2021/08/04 00:00:26;;;;;;;2.63;1.90;;;16.40;82.30;;;;;;4983417;28;20031;-65
2021/08/04 00:02:52;;;;;;;4.78;2.08;;;16.40;81.80;;;;;;4983961;28;20715;-64
2021/08/04 00:05:18;;;;;;;3.83;2.33;;;16.40;81.70;;;;;;4992827;28;20030;-64
2021/08/04 00:07:43;;;;;;;3.50;2.20;;;16.40;81.70;;;;;;4994101;28;20026;-65
2021/08/04 00:10:09;;;;;;;2.60;2.22;;;16.40;81.80;;;;;;4976127;28;20052;-64
2021/08/04 00:12:35;;;;;;;2.22;2.03;;;16.30;81.90;;;;;;4973415;28;20030;-64
2021/08/04 00:15:01;;;;;;;2.60;1.85;;;16.30;81.90;;;;;;4983648;28;20109;-64
2021/08/04 00:17:26;;;;;;;2.33;2.00;;;16.30;81.90;;;;;;4996494;28;20081;-64
2021/08/04 00:19:52;;;;;;;2.25;2.05;;;16.20;81.80;;;;;;4976245;28;20039;-64
2021/08/04 00:22:18;;;;;;;2.78;1.98;;;16.30;81.90;;;;;;4979947;28;20568;-64
2021/08/04 00:24:44;;;;;;;4.18;2.05;;;16.20;81.90;;;;;;4967248;28;20032;-64
2021/08/04 00:27:09;;;;;;;5.47;2.00;;;16.20;82.00;;;;;;4969224;28;20034;-64
2021/08/04 00:29:35;;;;;;;2.40;1.75;;;16.20;82.10;;;;;;4988468;28;20117;-64
2021/08/04 00:32:00;;;;;;;3.97;2.00;;;16.20;82.30;;;;;;4980515;28;20034;-63
2021/08/04 00:34:26;;;;;;;2.72;1.90;;;16.20;82.20;;;;;;4983293;28;20042;-64
2021/08/04 00:36:52;;;;;;;3.22;1.85;;;16.20;82.30;;;;;;4991363;28;20339;-64
2021/08/04 00:39:18;;;;;;;3.50;1.75;;;16.20;82.20;;;;;;4974350;28;20049;-64
2021/08/04 00:41:44;;;;;;;3.25;2.00;;;16.20;82.20;;;;;;4982000;28;20136;-64
2021/08/04 00:44:10;;;;;;;2.35;2.00;;;16.20;82.10;;;;;;4976758;28;20121;-63
2021/08/04 00:46:44;;;;;;;4.68;2.13;;;16.20;82.20;;;;;;4970194;28;20044;-64
2021/08/04 00:49:11;;;;;;;3.58;2.00;;;16.20;82.60;;;;;;4973945;28;20530;-64
2021/08/04 00:51:37;;;;;;;3.88;2.20;;;16.20;82.30;;;;;;4986249;28;20744;-64
2021/08/04 00:54:07;;;;;;;6.93;2.35;;;16.20;82.30;;;;;;4973782;28;20571;-64
2021/08/04 00:56:34;;;;;;;2.88;2.10;;;16.20;82.60;;;;;;4975814;28;20034;-64
2021/08/04 00:59:02;;;;;;;6.88;2.10;;;16.20;82.30;;;;;;4979426;28;21452;-63
2021/08/04 01:01:45;;;;;;;3.60;2.53;;;16.20;82.40;;;;;;4975932;28;20058;-64
2021/08/04 01:04:23;;;;;;;4.07;1.80;;;16.20;82.90;;;;;;4979350;28;20052;-64
2021/08/04 01:07:09;;;;;;;3.50;1.90;;;16.20;82.60;;;;;;4974777;28;20410;-64
2021/08/04 01:09:53;;;;;;;2.13;1.92;;;16.20;82.90;;;;;;4974093;28;20054;-64
2021/08/04 01:12:29;;;;;;;2.10;1.90;;;16.10;82.80;;;;;;4978241;28;20585;-65
2021/08/04 01:15:02;;;;;;;4.60;2.28;;;16.10;82.70;;;;;;4972490;28;20078;-64
2021/08/04 01:17:28;;;;;;;2.85;2.25;;;16.20;82.90;;;;;;4972690;28;20031;-64
2021/08/04 01:20:05;;;;;;;2.38;2.17;;;16.20;82.70;;;;;;4979217;28;20030;-64
2021/08/04 01:22:50;;;;;;;2.50;2.28;;;16.20;83.00;;;;;;4971392;28;20046;-64
2021/08/04 01:25:18;;;;;;;4.28;1.85;;;16.20;82.90;;;;;;4983667;28;20053;-64
2021/08/04 01:27:49;;;;;;;3.55;1.95;;;16.10;82.40;;;;;;4982261;28;20118;-64
2021/08/04 01:30:15;;;;;;;4.07;2.20;;;16.20;82.70;;;;;;4970724;28;20118;-65
2021/08/04 01:32:41;;;;;;;2.28;2.08;;;16.10;82.70;;;;;;4980456;28;20046;-64
2021/08/04 01:35:09;;;;;;;2.40;1.90;;;16.20;82.90;;;;;;4970798;28;20121;-64
2021/08/04 01:37:37;;;;;;;2.60;1.98;;;16.10;82.80;;;;;;4985886;28;20109;-64
2021/08/04 01:40:06;;;;;;;2.88;1.80;;;16.10;82.80;;;;;;4977933;28;20030;-64
2021/08/04 01:42:34;;;;;;;3.08;2.40;;;16.20;82.70;;;;;;4979928;28;20058;-64
2021/08/04 01:45:01;;;;;;;2.08;1.88;;;16.10;82.60;;;;;;4973959;28;20142;-65
2021/08/04 01:47:29;;;;;;;3.85;1.92;;;16.10;82.40;;;;;;4973124;28;20030;-65
2021/08/04 01:49:55;;;;;;;2.05;1.83;;;16.20;82.50;;;;;;4982579;28;20134;-64
2021/08/04 01:52:22;;;;;;;2.03;1.80;;;16.10;82.50;;;;;;4979970;28;20038;-64
2021/08/04 01:54:47;;;;;;;4.38;1.85;;;16.20;82.70;;;;;;4993901;28;20038;-65
2021/08/04 01:57:13;;;;;;;2.70;1.73;;;16.10;82.60;;;;;;4979408;28;20572;-65
2021/08/04 01:59:39;;;;;;;3.40;1.85;;;16.20;82.60;;;;;;4977947;28;20062;-65
2021/08/04 02:02:34;;;;;;;1.90;1.70;;;16.20;83.30;;;;;;4985173;28;20186;-65
2021/08/04 02:04:59;;;;;;;1.60;1.50;;;16.20;82.60;;;;;;4977670;28;20030;-65
2021/08/04 02:08:02;;;;;;;2.20;1.40;;;16.20;82.00;;;;;;4974280;28;20030;-65
2021/08/04 02:10:41;;;;;;;1.52;1.42;;;16.20;82.20;;;;;;4974541;28;20082;-65
2021/08/04 02:13:26;;;;;;;2.17;1.45;;;16.30;82.00;;;;;;4978467;28;20026;-64
2021/08/04 02:15:59;;;;;;;2.92;1.50;;;16.20;81.90;;;;;;4978263;28;20659;-64
2021/08/04 02:18:29;;;;;;;1.30;1.20;;;16.20;81.80;;;;;;4984673;28;20043;-65
2021/08/04 02:20:57;;;;;;;2.47;1.52;;;16.20;81.80;;;;;;4979607;28;20121;-65
2021/08/04 02:23:28;;;;;;;2.05;1.23;;;16.20;81.60;;;;;;4975517;28;20065;-64
2021/08/04 02:26:24;;;;;;;1.45;1.33;;;16.20;81.70;;;;;;4983308;28;20039;-65
2021/08/04 02:28:54;;;;;;;1.52;1.42;;;16.20;81.50;;;;;;4985476;28;20514;-65
2021/08/04 02:31:20;;;;;;;2.58;1.20;;;16.20;81.30;;;;;;4976373;28;20038;-65
2021/08/04 02:33:46;;;;;;;1.98;1.20;;;16.10;81.20;;;;;;4986201;28;20398;-64
2021/08/04 02:36:12;;;;;;;3.03;1.42;;;16.10;81.30;;;;;;4977193;28;20092;-64
2021/08/04 02:38:38;;;;;;;2.22;1.20;;;16.10;81.30;;;;;;4982807;28;20137;-65
2021/08/04 02:41:05;;;;;;;2.75;1.20;;;16.00;81.30;;;;;;4982007;28;20137;-64
2021/08/04 02:43:31;;;;;;;4.75;1.35;;;16.00;81.40;;;;;;4985620;28;20129;-65
2021/08/04 02:45:58;;;;;;;4.38;1.60;;;16.00;81.50;;;;;;4982633;28;20529;-64
2021/08/04 02:48:24;;;;;;;1.98;1.40;;;16.00;81.70;;;;;;4974697;28;20058;-64
2021/08/04 02:50:57;;;;;;;1.65;1.40;;;16.00;81.70;;;;;;4984967;28;20097;-65
2021/08/04 02:53:23;;;;;;;6.97;1.80;;;15.90;81.90;;;;;;4981355;28;20095;-64
2021/08/04 02:55:51;;;;;;;4.68;1.50;;;15.90;82.70;;;;;;4983462;28;20042;-65
2021/08/04 02:58:17;;;;;;;3.03;1.73;;;15.90;81.90;;;;;;4980269;28;20049;-65
2021/08/04 03:00:43;;;;;;;1.60;1.50;;;15.90;81.90;;;;;;4971604;28;20042;-64
2021/08/04 03:03:08;;;;;;;2.85;1.85;;;15.90;82.00;;;;;;4975233;28;20030;-65
2021/08/04 03:05:34;;;;;;;2.00;1.80;;;15.90;82.00;;;;;;4979036;28;20114;-65
2021/08/04 03:08:00;;;;;;;5.00;1.33;;;15.90;81.90;;;;;;4981443;28;20080;-65
2021/08/04 03:10:25;;;;;;;2.92;1.67;;;15.90;81.90;;;;;;4993211;28;20038;-65
2021/08/04 03:12:51;;;;;;;3.22;1.65;;;15.90;81.90;;;;;;4976206;28;20034;-64
2021/08/04 03:15:17;;;;;;;5.35;1.67;;;15.90;81.90;;;;;;4984196;28;20133;-64
2021/08/04 03:17:43;;;;;;;2.55;1.65;;;15.90;81.90;;;;;;4980515;28;20104;-64
2021/08/04 03:20:09;;;;;;;1.77;1.67;;;15.80;81.90;;;;;;4982777;28;20727;-64
2021/08/04 03:22:35;;;;;;;2.35;1.40;;;15.80;82.10;;;;;;4978826;28;20575;-64
2021/08/04 03:25:01;;;;;;;3.05;1.67;;;15.80;82.00;;;;;;4987423;28;20034;-65
2021/08/04 03:27:27;;;;;;;3.33;1.63;;;15.80;82.00;;;;;;4978415;28;20121;-64
2021/08/04 03:29:52;;;;;;;2.65;1.70;;;15.80;82.00;;;;;;4984350;28;20070;-64
2021/08/04 03:32:18;;;;;;;3.60;1.98;;;15.80;82.00;;;;;;4970150;28;20414;-64
2021/08/04 03:34:43;;;;;;;3.35;1.83;;;15.70;82.00;;;;;;4981424;28;20041;-65
2021/08/04 03:37:09;;;;;;;2.08;1.90;;;15.70;82.00;;;;;;4977513;28;20061;-63
2021/08/04 03:39:35;;;;;;;2.75;2.00;;;15.70;82.10;;;;;;4971311;28;20039;-64
2021/08/04 03:42:00;;;;;;;3.67;1.98;;;15.70;82.10;;;;;;4997575;28;20146;-63
2021/08/04 03:44:26;;;;;;;2.17;1.90;;;15.70;82.20;;;;;;4978744;28;20060;-64
2021/08/04 03:46:52;;;;;;;2.88;1.80;;;15.70;82.20;;;;;;4982711;28;21269;-62
2021/08/04 03:49:17;;;;;;;3.65;2.08;;;15.70;82.20;;;;;;4980431;28;20031;-64
2021/08/04 03:51:43;;;;;;;4.57;2.00;;;15.70;82.20;;;;;;4981165;28;20536;-65
2021/08/04 03:54:09;;;;;;;3.65;2.00;;;15.70;82.20;;;;;;4977568;28;20034;-65
2021/08/04 03:56:35;;;;;;;2.47;2.05;;;15.70;82.20;;;;;;4998757;28;20710;-65
2021/08/04 03:59:01;;;;;;;3.58;2.00;;;15.70;82.30;;;;;;4976069;28;20050;-64
2021/08/04 04:01:27;;;;;;;2.97;1.83;;;15.70;82.40;;;;;;4982175;28;20038;-64
2021/08/04 04:03:52;;;;;;;4.50;2.38;;;15.70;82.40;;;;;;4977627;28;20481;-64
2021/08/04 04:06:18;;;;;;;2.45;1.73;;;15.70;82.30;;;;;;4985745;28;20121;-65
2021/08/04 04:08:44;;;;;;;4.50;2.13;;;15.70;82.30;;;;;;4989037;28;20034;-63
2021/08/04 04:11:10;;;;;;;5.97;2.40;;;15.70;82.20;;;;;;4980093;28;20027;-65
2021/08/04 04:13:36;;;;;;;2.42;2.10;;;15.70;82.10;;;;;;4980882;28;20121;-64
2021/08/04 04:16:02;;;;;;;5.80;2.40;;;15.80;82.00;;;;;;4993674;28;20157;-65
2021/08/04 04:18:27;;;;;;;2.28;2.08;;;15.80;82.00;;;;;;4982328;28;20078;-65
2021/08/04 04:20:53;;;;;;;3.00;2.08;;;15.70;82.10;;;;;;4979455;28;20042;-64
2021/08/04 04:23:19;;;;;;;2.40;2.20;;;15.70;82.20;;;;;;4978736;28;20046;-65
2021/08/04 04:25:44;;;;;;;2.90;2.15;;;15.70;82.40;;;;;;4985707;28;20572;-65
2021/08/04 04:28:10;;;;;;;3.63;2.83;;;15.70;82.40;;;;;;4998769;28;20037;-64
2021/08/04 04:30:36;;;;;;;4.10;2.92;;;15.70;82.50;;;;;;4977214;28;20257;-64
2021/08/04 04:33:01;;;;;;;4.03;3.60;;;15.70;82.50;;;;;;4971624;28;20035;-65
2021/08/04 04:35:27;;;;;;;2.70;2.50;;;15.80;82.60;;;;;;4975392;28;20070;-64
2021/08/04 04:37:53;;;;;;;2.47;2.22;;;15.80;82.70;;;;;;4980955;28;20031;-64
2021/08/04 04:40:18;;;;;;;2.63;2.22;;;15.80;82.70;;;;;;4974091;28;20046;-64
2021/08/04 04:42:44;;;;;;;4.32;2.33;;;15.80;82.70;;;;;;4981477;28;20121;-64
2021/08/04 04:45:10;;;;;;;3.40;2.05;;;15.80;82.60;;;;;;5001074;28;20031;-64
2021/08/04 04:47:35;;;;;;;2.55;2.10;;;15.80;82.70;;;;;;4978738;28;20170;-64
2021/08/04 04:50:02;;;;;;;3.20;2.25;;;15.80;82.90;;;;;;4973631;28;20106;-64
2021/08/04 04:52:27;;;;;;;8.50;2.35;;;15.80;82.60;;;;;;4976024;28;20128;-64
2021/08/04 04:54:53;;;;;;;2.53;2.17;;;15.80;82.50;;;;;;4979331;28;20113;-64
2021/08/04 04:57:19;;;;;;;3.55;2.10;;;15.90;82.60;;;;;;4998334;28;20117;-67
2021/08/04 04:59:44;;;;;;;6.32;2.20;;;15.90;82.70;;;;;;4977021;28;20065;-64
2021/08/04 05:02:10;;;;;;;4.15;2.90;;;15.90;82.80;;;;;;4979103;28;20129;-65
2021/08/04 05:04:35;;;;;;;5.65;2.47;;;15.90;83.60;;;;;;4983036;28;20030;-65
2021/08/04 05:07:01;;;;;;;3.70;2.10;;;15.90;82.80;;;;;;4982801;28;20027;-65
2021/08/04 05:09:27;;;;;;;7.68;3.17;;;16.00;82.80;;;;;;4985118;28;20666;-65
2021/08/04 05:11:52;;;;;;;6.30;2.20;;;16.00;82.60;;;;;;4995150;28;20049;-65
2021/08/04 05:14:18;;;;;;;2.65;2.10;;;16.00;82.60;;;;;;4984029;28;20042;-65
2021/08/04 05:16:44;;;;;;;3.42;1.88;;;16.10;82.60;;;;;;4992407;28;20038;-64
2021/08/04 05:19:09;;;;;;;2.75;1.98;;;16.10;82.40;;;;;;4976710;28;20036;-65
2021/08/04 05:21:35;;;;;;;4.43;2.53;;;16.10;82.30;;;;;;4996561;28;20031;-65
2021/08/04 05:24:00;;;;;;;4.32;2.70;;;16.10;82.30;;;;;;4979799;28;20462;-64
2021/08/04 05:26:26;;;;;;;4.70;2.50;;;16.10;82.20;;;;;;4985678;28;20097;-65
2021/08/04 05:28:52;;;;;;;4.78;2.00;;;16.10;82.30;;;;;;4995286;28;20038;-63
2021/08/04 05:31:18;;;;;;;2.50;2.08;;;16.20;82.30;;;;;;4978322;28;20053;-63
2021/08/04 05:33:44;;;;;;;5.65;1.98;;;16.20;82.30;;;;;;4986511;28;20114;-65
2021/08/04 05:36:10;;;;;;;2.50;1.98;;;16.20;82.40;;;;;;4988917;28;20378;-64
2021/08/04 05:38:35;;;;;;;2.47;2.10;;;16.20;82.60;;;;;;4976419;28;20133;-64
2021/08/04 05:41:01;;;;;;;2.53;1.75;;;16.30;82.80;;;;;;4979164;28;20092;-65
2021/08/04 05:43:26;;;;;;;3.35;2.08;;;16.30;82.80;;;;;;4982786;28;20290;-65
2021/08/04 05:45:52;;;;;;;2.85;2.10;;;16.30;83.60;;;;;;4978019;28;20499;-65
2021/08/04 05:48:17;;;;;;;3.97;1.77;;;16.30;82.70;;;;;;4980976;28;20046;-65
2021/08/04 05:50:43;;;;;;;3.03;1.80;;;16.40;82.70;;;;;;4992492;28;20050;-64
2021/08/04 05:53:09;;;;;;;3.20;1.63;;;16.40;82.60;;;;;;4977260;28;20038;-64
2021/08/04 05:55:35;;;;;;;1.95;1.67;;;16.40;82.40;;;;;;4978468;28;20449;-65
2021/08/04 05:58:01;;;;;;;4.57;1.58;;;16.40;82.00;;;;;;4973208;28;20117;-65
2021/08/04 06:00:26;;;;;;;1.65;1.55;;;16.50;82.20;;;;;;4968105;28;20038;-64
2021/08/04 06:02:52;;;;;;;1.50;1.40;;;16.50;82.00;;;;;;4971560;28;20031;-64
2021/08/04 06:05:18;;;;;;;2.55;1.50;;;16.50;81.90;;;;;;4974457;28;20050;-64
2021/08/04 06:07:43;;;;;;;1.88;1.50;;;16.60;81.70;;;;;;4975307;28;20030;-65
2021/08/04 06:10:10;;;;;;;1.52;1.42;;;16.60;81.60;;;;;;4981120;28;20026;-65
2021/08/04 06:12:35;;;;;;;4.38;1.45;;;16.60;81.50;;;;;;4980019;28;20120;-65
2021/08/04 06:15:01;;;;;;;2.67;1.90;;;16.60;81.50;;;;;;4986456;28;20054;-64
2021/08/04 06:17:27;;;;;;;1.60;1.50;;;16.60;81.80;;;;;;4979329;28;20502;-64
2021/08/04 06:19:52;;;;;;;1.85;1.40;;;16.60;81.90;;;;;;4977613;28;20125;-64
2021/08/04 06:22:18;;;;;;;1.98;1.75;;;16.60;82.10;;;;;;4980535;28;20602;-65
2021/08/04 06:24:44;;;;;;;2.35;1.40;;;16.70;82.20;;;;;;4978712;28;20517;-65
2021/08/04 06:27:09;;;;;;;2.33;1.60;;;16.70;82.10;;;;;;4983242;28;20046;-65
2021/08/04 06:29:35;;;;;;;3.30;1.40;;;16.80;82.00;;;;;;4984643;28;20041;-63
2021/08/04 06:32:00;;;;;;;2.05;1.85;;;16.80;81.80;;;;;;4979946;28;20042;-63
2021/08/04 06:34:26;;;;;;;4.85;2.20;;;16.80;81.70;;;;;;4979005;28;20093;-65
2021/08/04 06:36:52;;;;;;;1.60;1.50;;;16.90;81.90;;;;;;4981106;28;20039;-63
2021/08/04 06:39:17;;;;;;;1.92;1.83;;;16.90;81.80;;;;;;4978221;28;20521;-64
2021/08/04 06:41:43;;;;;;;3.45;2.10;;;17.00;81.70;;;;;;4981294;28;20125;-64
2021/08/04 06:44:08;;;;;;;2.00;1.60;;;17.10;81.70;;;;;;4978699;28;20039;-65
2021/08/04 06:46:36;;;;;;;1.95;1.77;;;17.10;81.40;;;;;;4975252;28;20046;-65
2021/08/04 06:49:03;;;;;;;2.85;1.65;;;17.20;81.00;;;;;;4971932;28;20030;-64
2021/08/04 06:51:30;;;;;;;2.55;1.65;;;17.20;81.00;;;;;;4972408;28;20490;-64
2021/08/04 06:53:56;;;;;;;2.20;2.00;;;17.30;81.00;;;;;;4970429;28;20118;-64
2021/08/04 06:56:22;;;;;;;3.78;2.65;;;17.30;81.00;;;;;;4974162;28;20173;-64
2021/08/04 06:58:48;;;;;;;2.42;1.58;;;17.40;81.00;;;;;;4976856;28;20022;-64
2021/08/04 07:01:13;;;;;;;2.95;1.95;;;17.40;81.00;;;;;;4971553;28;20068;-63
2021/08/04 07:03:39;;;;;;;2.25;1.75;;;17.50;80.60;;;;;;4963052;28;20038;-64
2021/08/04 07:06:09;;;;;;;2.38;1.50;;;17.60;80.70;;;;;;4971345;28;20046;-63
2021/08/04 07:08:38;;;;;;;1.30;1.10;;;17.60;80.30;;;;;;4975016;28;20031;-63
2021/08/04 07:11:05;;;;;;;2.67;1.52;;;17.70;80.30;;;;;;4972711;28;20141;-65
2021/08/04 07:13:31;;;;;;;9.27;5.38;;;17.70;80.10;;;;;;4976175;28;20089;-64
2021/08/04 07:15:56;;;;;;;4.43;3.72;;;17.70;80.00;;;;;;4984029;28;20042;-64
2021/08/04 07:18:22;;;;;;;5.10;3.97;;;17.80;80.20;;;;;;4962175;28;20092;-64
2021/08/04 07:20:48;;;;;;;3.25;2.35;;;17.90;79.60;;;;;;4965616;28;20470;-65
2021/08/04 07:23:13;;;;;;;1.58;1.42;;;17.90;79.30;;;;;;4969757;28;21022;-65
2021/08/04 07:25:39;;;;;;;2.35;1.20;;;18.00;78.90;;;;;;4982271;28;20884;-65
2021/08/04 07:28:05;;;;;;;11.48;7.80;;;18.00;78.60;;;;;;4979479;28;20048;-65
2021/08/04 07:30:30;;;;;;;5.93;3.85;;;18.10;78.40;;;;;;4980654;28;20027;-65
2021/08/04 07:32:56;;;;;;;2.47;2.00;;;18.20;78.20;;;;;;4969990;28;20039;-65
2021/08/04 07:35:22;;;;;;;4.07;1.33;;;18.30;78.20;;;;;;4968749;28;20065;-65
2021/08/04 07:37:48;;;;;;;1.17;1.08;;;18.30;77.70;;;;;;4975283;28;20066;-65
2021/08/04 07:40:16;;;;;;;2.25;1.25;;;18.30;77.50;;;;;;4977856;28;20038;-65
2021/08/04 07:42:42;;;;;;;1.20;1.10;;;18.40;77.00;;;;;;4977625;28;20039;-65
2021/08/04 07:45:08;;;;;;;1.63;1.17;;;18.40;76.60;;;;;;4980818;28;20034;-65
2021/08/04 07:47:34;;;;;;;1.40;1.17;;;18.50;76.50;;;;;;4980439;28;20030;-65
2021/08/04 07:50:00;;;;;;;1.85;1.40;;;18.60;76.60;;;;;;4975403;28;20045;-65
2021/08/04 07:52:25;;;;;;;1.20;1.10;;;18.60;76.80;;;;;;4977036;28;20043;-65
2021/08/04 07:54:51;;;;;;;1.20;1.10;;;18.70;76.50;;;;;;4987947;28;20030;-65
2021/08/04 07:57:17;;;;;;;1.10;1.00;;;18.80;76.00;;;;;;4974732;28;20114;-64
2021/08/04 07:59:42;;;;;;;1.17;1.08;;;18.90;75.20;;;;;;4974160;28;20034;-65
2021/08/04 08:02:08;;;;;;;1.20;1.10;;;18.90;74.80;;;;;;4973818;28;20056;-65
2021/08/04 08:04:34;;;;;;;2.33;1.05;;;19.00;75.10;;;;;;4975311;28;20043;-65
2021/08/04 08:07:00;;;;;;;1.23;1.00;;;19.10;75.10;;;;;;4980669;28;20027;-65
2021/08/04 08:09:26;;;;;;;2.25;1.50;;;19.10;74.70;;;;;;4977927;28;20552;-65
2021/08/04 08:11:56;;;;;;;1.55;1.13;;;19.20;74.70;;;;;;4973973;28;20039;-65
2021/08/04 08:14:22;;;;;;;2.10;1.30;;;19.20;74.10;;;;;;4976246;28;20047;-65
2021/08/04 08:16:48;;;;;;;2.75;1.73;;;19.30;73.70;;;;;;4978296;28;20042;-65
2021/08/04 08:19:13;;;;;;;3.67;1.90;;;19.30;73.00;;;;;;4980950;28;20055;-65
2021/08/04 08:21:39;;;;;;;3.70;2.00;;;19.30;72.80;;;;;;4981093;28;20521;-65
2021/08/04 08:24:06;;;;;;;2.45;1.55;;;19.40;72.70;;;;;;4979457;28;20530;-65
2021/08/04 08:26:33;;;;;;;1.10;1.00;;;19.40;72.30;;;;;;4978529;28;20119;-65
2021/08/04 08:28:58;;;;;;;1.20;0.95;;;19.50;72.60;;;;;;4978643;28;20085;-66
2021/08/04 08:31:24;;;;;;;3.03;0.93;;;19.50;72.40;;;;;;4995698;28;20043;-65
2021/08/04 08:33:50;;;;;;;1.35;1.00;;;19.50;72.10;;;;;;4974539;28;20027;-65
2021/08/04 08:36:15;;;;;;;1.65;1.55;;;19.60;71.50;;;;;;4978555;28;20037;-66
2021/08/04 08:38:41;;;;;;;1.50;1.40;;;19.60;71.20;;;;;;4978535;28;20046;-65
2021/08/04 08:41:07;;;;;;;1.40;1.00;;;19.60;71.10;;;;;;4980077;28;20049;-66
2021/08/04 08:43:34;;;;;;;1.60;1.10;;;19.60;70.40;;;;;;4981284;28;20550;-65
2021/08/04 08:46:04;;;;;;;3.13;1.20;;;19.70;71.30;;;;;;4984690;28;20034;-65
2021/08/04 08:48:30;;;;;;;1.55;1.00;;;19.70;70.70;;;;;;4980495;28;20089;-65
2021/08/04 08:50:55;;;;;;;3.90;1.48;;;19.80;70.50;;;;;;4999316;28;20452;-66
2021/08/04 08:53:21;;;;;;;1.20;1.00;;;19.80;70.20;;;;;;4980031;28;20074;-65
2021/08/04 08:55:48;;;;;;;1.17;1.08;;;19.80;70.60;;;;;;4977455;28;20035;-65
2021/08/04 08:58:14;;;;;;;1.55;1.20;;;19.90;70.60;;;;;;4965081;28;20421;-65
2021/08/04 09:00:40;;;;;;;1.10;1.00;;;19.90;70.50;;;;;;4981618;28;20037;-65
2021/08/04 09:03:05;;;;;;;2.15;1.30;;;19.90;71.10;;;;;;4977073;28;20031;-65
2021/08/04 09:05:50;;;;;;;1.90;1.50;;;20.00;70.10;;;;;;4977788;28;20055;-65
2021/08/04 09:08:31;;;;;;;1.30;0.90;;;20.00;68.90;;;;;;4983180;28;20378;-66
2021/08/04 09:11:08;;;;;;;1.67;0.98;;;20.00;70.20;;;;;;4975801;28;20043;-66
2021/08/04 09:13:35;;;;;;;1.77;1.23;;;20.10;69.90;;;;;;4979194;28;20022;-65
2021/08/04 09:16:14;;;;;;;2.88;2.10;;;20.10;69.70;;;;;;4974046;28;20042;-66
2021/08/04 09:18:51;;;;;;;2.08;1.20;;;20.20;68.50;;;;;;4973011;28;20029;-65
2021/08/04 09:21:18;;;;;;;1.83;1.20;;;20.20;68.60;;;;;;4992962;28;20047;-66
2021/08/04 09:23:48;;;;;;;1.35;1.20;;;20.30;69.00;;;;;;4983835;28;20486;-66
2021/08/04 09:26:19;;;;;;;1.10;1.00;;;20.30;68.80;;;;;;4983926;28;20041;-66
2021/08/04 09:29:09;;;;;;;1.63;1.08;;;20.30;68.60;;;;;;4986854;28;20488;-66
2021/08/04 09:31:44;;;;;;;1.15;0.95;;;20.30;67.70;;;;;;4987215;28;20029;-66
2021/08/04 09:34:35;;;;;;;1.50;1.40;;;20.40;67.00;;;;;;4988481;28;20026;-67
2021/08/04 09:37:04;;;;;;;1.10;1.00;;;20.40;65.70;;;;;;4987131;28;20406;-66
2021/08/04 09:39:31;;;;;;;0.95;0.90;;;20.40;67.00;;;;;;4980098;28;20414;-66
2021/08/04 09:41:58;;;;;;;0.90;0.90;;;20.40;66.20;;;;;;4985497;28;20042;-66
2021/08/04 09:44:24;;;;;;;1.40;1.08;;;20.40;65.70;;;;;;4986250;28;20153;-66
2021/08/04 09:47:04;;;;;;;1.30;1.05;;;20.40;66.20;;;;;;4986593;28;20142;-65
2021/08/04 09:49:30;;;;;;;1.13;1.00;;;20.40;66.00;;;;;;4987211;28;20088;-66
2021/08/04 09:52:11;;;;;;;1.23;1.13;;;20.50;66.60;;;;;;4986726;28;20026;-66
2021/08/04 09:54:42;;;;;;;1.00;1.00;;;20.50;65.30;;;;;;4986577;28;20073;-65
2021/08/04 09:57:08;;;;;;;3.72;1.05;;;20.60;65.50;;;;;;5000282;28;20035;-65
2021/08/04 09:59:35;;;;;;;0.90;0.90;;;20.60;65.20;;;;;;4986520;28;20042;-66
2021/08/04 10:02:02;;;;;;;1.38;1.10;;;20.70;65.80;;;;;;4986735;28;20042;-64
2021/08/04 10:04:28;;;;;;;1.25;1.10;;;20.70;66.10;;;;;;4978654;28;20031;-65
2021/08/04 10:07:08;;;;;;;1.30;1.10;;;20.80;65.50;;;;;;4986395;28;20450;-65
2021/08/04 10:09:35;;;;;;;0.70;0.70;;;20.80;64.60;;;;;;4988819;28;20039;-66
2021/08/04 10:12:03;;;;;;;1.13;1.02;;;20.90;64.80;;;;;;4982358;28;20049;-65
2021/08/04 10:14:28;;;;;;;1.10;0.90;;;21.00;64.40;;;;;;4986887;28;20038;-66
2021/08/04 10:16:55;;;;;;;2.67;1.25;;;21.00;65.30;;;;;;4988682;28;20054;-66
2021/08/04 10:19:23;;;;;;;1.00;1.00;;;21.10;65.30;;;;;;4988873;28;20465;-66
2021/08/04 10:21:51;;;;;;;1.10;1.00;;;21.20;65.10;;;;;;4989668;28;20105;-65
2021/08/04 10:24:17;;;;;;;1.60;1.15;;;21.20;65.40;;;;;;5002589;28;20038;-66
2021/08/04 10:26:43;;;;;;;1.23;1.15;;;21.30;65.00;;;;;;4986998;28;20042;-65
2021/08/04 10:29:09;;;;;;;1.80;1.42;;;21.30;65.30;;;;;;4989990;28;20390;-66
2021/08/04 10:31:39;;;;;;;1.73;1.15;;;21.30;64.80;;;;;;4988018;28;20041;-66
2021/08/04 10:34:06;;;;;;;1.20;1.10;;;21.40;65.10;;;;;;4987093;28;20525;-66
2021/08/04 10:36:36;;;;;;;2.45;1.30;;;21.30;63.80;;;;;;5003688;28;20113;-66
2021/08/04 10:39:11;;;;;;;1.23;1.13;;;21.30;63.40;;;;;;4989590;28;20598;-66
2021/08/04 10:41:37;;;;;;;;;;;21.30;62.40;;;;;;4989092;28;20053;-66
2021/08/04 10:44:06;;;;;;;0.85;0.85;;;21.20;63.70;;;;;;4980531;28;19914;-66
2021/08/04 10:46:31;;;;;;;1.30;1.00;;;21.20;63.60;;;;;;4984422;28;20031;-66
2021/08/04 10:49:03;;;;;;;1.38;1.27;;;21.20;63.80;;;;;;4995490;28;20041;-66
2021/08/04 10:51:29;;;;;;;1.20;1.10;;;21.10;62.70;;;;;;4983339;28;20022;-66
2021/08/04 10:54:01;;;;;;;1.05;0.95;;;21.10;63.30;;;;;;4974835;28;20422;-66
2021/08/04 10:56:50;;;;;;;1.10;1.00;;;21.00;62.90;;;;;;4993243;28;20039;-66
2021/08/04 10:59:26;;;;;;;1.02;0.90;;;21.00;63.10;;;;;;4975596;28;20034;-66
2021/08/04 11:01:53;;;;;;;1.50;0.98;;;21.10;62.40;;;;;;4984534;28;20019;-66
2021/08/04 11:04:25;;;;;;;1.35;0.90;;;21.10;63.20;;;;;;4982840;28;20030;-66
2021/08/04 11:07:09;;;;;;;1.05;0.95;;;21.10;62.80;;;;;;4986299;28;20022;-66
2021/08/04 11:09:40;;;;;;;1.98;1.08;;;21.10;63.30;;;;;;5002555;28;20596;-66
2021/08/04 11:12:07;;;;;;;1.13;1.02;;;21.10;63.00;;;;;;4979784;28;20038;-66
2021/08/04 11:14:53;;;;;;;1.00;0.90;;;21.20;63.90;;;;;;4985325;28;20039;-65
2021/08/04 11:17:31;;;;;;;0.80;0.80;;;21.30;63.10;;;;;;4983524;28;20050;-66
2021/08/04 11:20:03;;;;;;;1.05;0.98;;;21.40;63.70;;;;;;4986130;28;20034;-66
2021/08/04 11:22:48;;;;;;;1.00;0.90;;;21.40;64.10;;;;;;4998316;28;20550;-66
2021/08/04 11:25:26;;;;;;;1.80;1.05;;;21.50;62.90;;;;;;4986792;28;20030;-66
2021/08/04 11:27:52;;;;;;;1.38;0.98;;;21.60;63.60;;;;;;4979536;28;20178;-66
2021/08/04 11:30:39;;;;;;;1.10;0.90;;;21.70;63.30;;;;;;4985612;28;20178;-66
2021/08/04 11:33:27;;;;;;;1.15;0.80;;;21.80;61.80;;;;;;4982388;28;20088;-67
2021/08/04 11:36:12;;;;;;;0.95;0.80;;;21.90;62.10;;;;;;4999361;28;20045;-66
2021/08/04 11:39:01;;;;;;;0.95;0.85;;;21.90;62.80;;;;;;4978389;28;20077;-66
2021/08/04 11:41:26;;;;;;;1.35;1.25;;;21.90;61.80;;;;;;4986934;28;20042;-66
2021/08/04 11:43:59;;;;;;;1.40;1.05;;;22.00;61.50;;;;;;4993178;28;20045;-66
2021/08/04 11:46:47;;;;;;;1.00;0.93;;;22.10;61.50;;;;;;4980778;28;20042;-66
2021/08/04 11:49:15;;;;;;;1.15;1.02;;;22.10;60.20;;;;;;4994510;28;20030;-66
2021/08/04 11:51:51;;;;;;;0.80;0.80;;;22.20;61.50;;;;;;4985418;28;20039;-66
2021/08/04 11:54:34;;;;;;;0.82;0.80;;;22.20;60.70;;;;;;4984360;28;20525;-66
2021/08/04 11:57:00;;;;;;;0.80;0.70;;;22.20;59.10;;;;;;4979034;28;20043;-66
2021/08/04 11:59:25;;;;;;;2.17;1.00;;;22.20;60.30;;;;;;4997938;28;20112;-66
2021/08/04 12:02:02;;;;;;;0.80;0.80;;;22.20;61.90;;;;;;4981030;28;20583;-66
2021/08/04 12:04:30;;;;;;;3.15;1.25;;;22.20;60.30;;;;;;4984874;28;20763;-66
2021/08/04 12:06:59;;;;;;;1.80;0.77;;;22.20;60.40;;;;;;4985679;28;20026;-66
2021/08/04 12:09:30;;;;;;;1.20;1.10;;;22.30;60.40;;;;;;4984322;28;20399;-66
2021/08/04 12:11:57;;;;;;;1.25;1.00;;;22.40;60.30;;;;;;4977090;28;20050;-66
2021/08/04 12:14:24;;;;;;;1.27;0.82;;;22.40;60.30;;;;;;4984795;28;20616;-66
2021/08/04 12:16:58;;;;;;;0.85;0.80;;;22.40;60.10;;;;;;4985201;28;20046;-66
2021/08/04 12:19:37;;;;;;;1.70;0.88;;;22.40;59.60;;;;;;4984823;28;20042;-66
2021/08/04 12:22:09;;;;;;;1.05;0.95;;;22.50;58.90;;;;;;4986066;28;20030;-66
2021/08/04 12:24:48;;;;;;;0.80;0.80;;;22.50;59.10;;;;;;4984113;28;20030;-66
2021/08/04 12:27:27;;;;;;;1.55;1.10;;;22.50;59.00;;;;;;4983737;28;20038;-66
2021/08/04 12:30:06;;;;;;;1.52;0.90;;;22.50;58.90;;;;;;4987583;28;20093;-65
2021/08/04 12:32:33;;;;;;;1.15;1.00;;;22.50;58.10;;;;;;4983668;28;20041;-66
2021/08/04 12:35:01;;;;;;;1.67;0.90;;;22.40;59.20;;;;;;4981306;28;20077;-66
2021/08/04 12:37:29;;;;;;;0.90;0.90;;;22.40;59.60;;;;;;4980200;28;20081;-66
2021/08/04 12:40:05;;;;;;;1.30;0.88;;;22.40;59.00;;;;;;4984205;28;20608;-66
2021/08/04 12:42:31;;;;;;;1.30;1.20;;;22.40;58.60;;;;;;4984900;28;20520;-66
2021/08/04 12:45:19;;;;;;;1.02;0.88;;;22.40;58.70;;;;;;4985329;28;20106;-66
2021/08/04 12:47:55;;;;;;;1.10;1.00;;;22.40;58.70;;;;;;4984404;28;20060;-66
2021/08/04 12:50:23;;;;;;;1.02;0.90;;;22.40;58.80;;;;;;4983693;28;20035;-66
2021/08/04 12:52:48;;;;;;;2.00;0.98;;;22.40;58.60;;;;;;4981305;28;20038;-66
2021/08/04 12:55:16;;;;;;;1.15;1.05;;;22.40;58.30;;;;;;4983228;28;20105;-66